Accomac, Pennsylvania
Current Conditions -  °F | °C
As of 11:56 AM on Thursday 23 Oct 2014 (Local Time) from KMDT Reporting Station
Overcast Overcast  
Wind Chill: 56°   Ceiling: 3100
Heat Index: 56°   Visibility: 10mi
Dew Point: 43°   Wind: 15mph
Humidity: 62%   Direction: 340°NNW
Pressure: 29.87"   Gusts: 28mph
Location:  40.0152°N, 76.5974°W
Report Text: KMDT 231556Z 34013G24KT 10SM OVC031 13/06 A2987 RMK AO2 PK WND 32027/1538 SLP115 T01330061
Loading
Personal Weather Stations






























Interactive Weather Map
Tropical Storm Tracking
New forecast layout! Learn more

10-Day Weather Forecast

Advertisements
Track Severe Weather on mobile